Time;durP1;ratioP1;P1;durP2;ratioP2;P2;SDS_P1;SDS_P2;PMS_P1;PMS_P2;Temp;Humidity;BMP_temperature;BMP_pressure;BME280_temperature;BME280_humidity;BME280_pressure;Samples;Min_cycle;Max_cycle;Signal;HPM_P1;HPM_P2
2022/04/26 03:36:56;;;;;;;;;;;19.50;49.30;;;;;;5037763;28;19966;-76
2022/04/26 03:39:25;;;;;;;;;;;19.50;49.30;;;;;;5060906;28;19928;-75
2022/04/26 03:41:51;;;;;;;;;;;19.40;49.20;;;;;;5066602;28;19925;-76
2022/04/26 03:44:16;;;;;;;;;;;19.50;49.30;;;;;;5065471;28;19928;-76
2022/04/26 03:46:42;;;;;;;;;;;19.50;49.30;;;;;;5044531;28;19978;-78
2022/04/26 03:49:07;;;;;;;;;;;19.50;49.30;;;;;;5055410;28;19926;-75
2022/04/26 03:51:33;;;;;;;;;;;19.50;49.30;;;;;;5064185;28;19920;-75
2022/04/26 03:53:59;;;;;;;;;;;19.50;49.30;;;;;;5067728;28;20409;-76
2022/04/26 03:56:25;;;;;;;;;;;19.50;49.20;;;;;;5065449;28;19971;-76
2022/04/26 03:58:50;;;;;;;;;;;19.50;49.30;;;;;;5061491;28;19971;-74
2022/04/26 04:01:16;;;;;;;;;;;19.50;49.30;;;;;;5062497;28;19949;-78
2022/04/26 04:03:41;;;;;;;;;;;19.40;49.20;;;;;;5060257;28;19921;-75
2022/04/26 04:06:07;;;;;;;;;;;19.50;49.30;;;;;;5043445;28;20077;-75
2022/04/26 04:08:33;;;;;;;;;;;19.40;49.20;;;;;;5048243;28;19916;-76
2022/04/26 04:10:58;;;;;;;;;;;19.40;49.20;;;;;;5061344;28;19924;-74
2022/04/26 04:13:23;;;;;;;;;;;19.40;49.20;;;;;;5062514;28;19932;-76
2022/04/26 04:15:49;;;;;;;;;;;19.40;49.20;;;;;;5068503;28;19981;-76
2022/04/26 04:21:00;;;;;;;;;;;19.40;49.20;;;;;;5065283;28;19925;-75
2022/04/26 04:23:26;;;;;;;;;;;19.40;49.30;;;;;;5064152;28;19920;-77
2022/04/26 04:25:51;;;;;;;;;;;19.40;49.20;;;;;;5058800;28;19927;-75
2022/04/26 04:28:20;;;;;;;;;;;19.40;49.30;;;;;;5058379;28;19977;-81
2022/04/26 04:30:46;;;;;;;;;;;19.40;49.30;;;;;;5064696;28;19925;-74
2022/04/26 04:33:14;;;;;;;;;;;19.40;49.30;;;;;;5065389;28;19924;-75
2022/04/26 04:35:40;;;;;;;;;;;19.40;49.30;;;;;;5035095;28;19920;-79
2022/04/26 04:38:05;;;;;;;;;;;19.40;49.30;;;;;;5053984;28;20300;-77
2022/04/26 04:40:30;;;;;;;;;;;19.40;49.30;;;;;;5057728;28;19924;-76
2022/04/26 04:42:56;;;;;;;;;;;19.40;49.30;;;;;;5048101;28;20056;-76
2022/04/26 04:45:22;;;;;;;;;;;19.40;49.30;;;;;;5065119;28;19920;-78
2022/04/26 04:47:47;;;;;;;;;;;19.40;49.30;;;;;;5047569;28;19947;-76
2022/04/26 04:50:13;;;;;;;;;;;19.40;49.30;;;;;;5053571;28;19924;-74
2022/04/26 04:52:38;;;;;;;;;;;19.40;49.30;;;;;;5057828;28;20391;-75
2022/04/26 04:55:04;;;;;;;;;;;19.40;49.20;;;;;;5063322;28;20014;-76
2022/04/26 04:57:29;;;;;;;;;;;19.40;49.20;;;;;;5054983;28;19928;-78
2022/04/26 04:59:55;;;;;;;;;;;19.40;49.40;;;;;;5038471;28;20303;-78
2022/04/26 05:02:20;;;;;;;;;;;19.40;49.30;;;;;;5051378;28;20007;-79
2022/04/26 05:04:47;;;;;;;;;;;19.40;49.40;;;;;;5058442;28;19916;-79
2022/04/26 05:07:13;;;;;;;;;;;19.30;49.40;;;;;;5055724;28;19921;-80
2022/04/26 05:09:38;;;;;;;;;;;19.30;49.40;;;;;;5057482;28;19936;-77
2022/04/26 05:12:04;;;;;;;;;;;19.30;49.60;;;;;;5036246;28;19928;-77
2022/04/26 05:14:30;;;;;;;;;;;19.30;49.60;;;;;;5046123;28;20035;-77
2022/04/26 05:16:55;;;;;;;;;;;19.30;49.60;;;;;;5058936;28;20303;-82
2022/04/26 05:19:20;;;;;;;;;;;19.30;50.00;;;;;;5051158;28;19977;-77
2022/04/26 05:21:46;;;;;;;;;;;19.30;50.10;;;;;;5055212;28;19927;-76
2022/04/26 05:26:56;;;;;;;;;;;19.30;50.50;;;;;;5053572;28;19921;-78
2022/04/26 05:29:21;;;;;;;;;;;19.30;50.50;;;;;;5046509;28;19929;-78
2022/04/26 05:31:47;;;;;;;;;;;19.40;50.60;;;;;;5051811;28;19927;-78
2022/04/26 05:34:12;;;;;;;;;;;19.40;50.70;;;;;;5051979;28;19928;-77
2022/04/26 05:36:38;;;;;;;;;;;19.40;50.60;;;;;;5045181;28;19927;-76
2022/04/26 05:39:03;;;;;;;;;;;19.40;50.50;;;;;;5058449;28;19997;-75
2022/04/26 05:41:28;;;;;;;;;;;19.50;50.60;;;;;;5045278;28;19964;-75
2022/04/26 05:43:54;;;;;;;;;;;19.50;50.70;;;;;;5028974;28;20478;-74
2022/04/26 05:46:20;;;;;;;;;;;19.50;50.60;;;;;;5045857;28;19924;-75
2022/04/26 05:48:45;;;;;;;;;;;19.50;50.60;;;;;;5047798;28;20380;-75
2022/04/26 05:51:11;;;;;;;;;;;19.60;50.60;;;;;;5059321;28;20051;-75
2022/04/26 05:53:37;;;;;;;;;;;19.60;50.60;;;;;;5059706;28;19952;-75
2022/04/26 05:56:04;;;;;;;;;;;19.60;50.60;;;;;;5050981;28;20744;-76
2022/04/26 05:58:30;;;;;;;;;;;19.60;50.60;;;;;;5051237;28;20015;-75
2022/04/26 06:00:55;;;;;;;;;;;19.60;50.50;;;;;;5056981;28;20364;-76
2022/04/26 06:03:21;;;;;;;;;;;19.70;50.70;;;;;;5057916;28;20131;-76
2022/04/26 06:05:46;;;;;;;;;;;19.70;50.60;;;;;;5055752;28;19977;-74
2022/04/26 06:08:12;;;;;;;;;;;19.70;50.70;;;;;;5051050;28;20370;-74
2022/04/26 06:10:38;;;;;;;;;;;19.70;50.70;;;;;;5044546;28;19924;-77
2022/04/26 06:13:04;;;;;;;;;;;19.70;50.80;;;;;;5056766;28;19924;-78
2022/04/26 06:15:29;;;;;;;;;;;19.80;50.70;;;;;;5049816;28;19935;-77
2022/04/26 06:17:54;;;;;;;;;;;19.80;51.40;;;;;;5060307;28;19916;-76
2022/04/26 06:20:23;;;;;;;;;;;19.80;50.60;;;;;;5041776;28;19931;-77
2022/04/26 06:22:48;;;;;;;;;;;19.80;50.60;;;;;;5055039;28;19924;-77
2022/04/26 06:25:14;;;;;;;;;;;19.80;50.60;;;;;;5060674;28;19930;-76
2022/04/26 06:27:39;;;;;;;;;;;19.90;50.60;;;;;;5048645;28;20459;-76
2022/04/26 06:30:05;;;;;;;;;;;19.90;50.40;;;;;;5062552;28;19930;-80
2022/04/26 06:32:31;;;;;;;;;;;19.90;50.30;;;;;;5065512;28;20364;-80
2022/04/26 06:34:56;;;;;;;;;;;19.90;50.20;;;;;;5056647;28;19927;-79
2022/04/26 06:37:23;;;;;;;;;;;19.90;50.10;;;;;;5048310;28;19928;-81
2022/04/26 06:39:50;;;;;;;;;;;19.90;50.10;;;;;;5065209;28;19936;-75
2022/04/26 06:42:16;;;;;;;;;;;19.90;50.00;;;;;;5054986;28;19978;-77
2022/04/26 06:44:41;;;;;;;;;;;20.00;50.20;;;;;;5050358;28;19929;-75
2022/04/26 06:47:07;;;;;;;;;;;20.00;51.20;;;;;;5056557;28;19920;-75
2022/04/26 06:49:32;;;;;;;;;;;20.00;50.30;;;;;;5051366;28;19924;-76
2022/04/26 06:51:58;;;;;;;;;;;20.00;50.30;;;;;;5059337;28;19932;-77
2022/04/26 06:54:23;;;;;;;;;;;20.00;50.20;;;;;;5032954;28;19928;-77
2022/04/26 06:56:49;;;;;;;;;;;20.00;50.30;;;;;;5054978;28;19994;-74
2022/04/26 06:59:15;;;;;;;;;;;20.00;50.20;;;;;;5063783;28;19970;-74
2022/04/26 07:01:40;;;;;;;;;;;20.10;50.10;;;;;;5060553;28;19964;-78
2022/04/26 07:04:07;;;;;;;;;;;20.10;50.00;;;;;;5049408;28;20483;-78
2022/04/26 07:06:32;;;;;;;;;;;20.10;49.40;;;;;;5058681;28;19928;-76
2022/04/26 07:08:58;;;;;;;;;;;20.20;49.30;;;;;;5065010;28;19931;-74
2022/04/26 07:11:23;;;;;;;;;;;20.10;49.40;;;;;;5050040;28;19924;-78
2022/04/26 07:13:49;;;;;;;;;;;20.20;49.60;;;;;;5058307;28;19976;-77
2022/04/26 07:16:14;;;;;;;;;;;20.20;48.80;;;;;;5047927;28;20296;-74
2022/04/26 07:18:40;;;;;;;;;;;20.20;48.50;;;;;;5051217;28;20030;-72
2022/04/26 07:21:05;;;;;;;;;;;20.20;48.30;;;;;;5048752;28;19927;-73
2022/04/26 07:23:31;;;;;;;;;;;20.20;48.10;;;;;;5057213;28;20542;-73
2022/04/26 07:25:57;;;;;;;;;;;20.20;47.90;;;;;;5063180;28;19990;-72
2022/04/26 07:28:23;;;;;;;;;;;20.20;48.50;;;;;;5046605;28;19935;-72
2022/04/26 07:30:48;;;;;;;;;;;20.20;47.80;;;;;;5051305;28;19924;-78
2022/04/26 07:35:58;;;;;;;;;;;20.20;48.10;;;;;;5055848;28;20011;-72
2022/04/26 07:38:24;;;;;;;;;;;20.30;48.30;;;;;;5059229;28;20935;-73
2022/04/26 07:40:49;;;;;;;;;;;20.30;48.20;;;;;;5061367;28;19940;-71
2022/04/26 07:43:15;;;;;;;;;;;20.30;48.10;;;;;;5061844;28;19940;-76
2022/04/26 07:45:41;;;;;;;;;;;20.30;48.00;;;;;;5057053;28;19924;-76
2022/04/26 07:48:08;;;;;;;;;;;20.30;47.90;;;;;;5055420;28;20395;-74
2022/04/26 07:50:35;;;;;;;;;;;20.30;47.60;;;;;;5051141;28;19924;-78
2022/04/26 07:53:01;;;;;;;;;;;20.30;47.70;;;;;;5064789;28;19921;-78
2022/04/26 07:55:27;;;;;;;;;;;20.40;47.70;;;;;;5060355;28;19924;-78
2022/04/26 07:57:52;;;;;;;;;;;20.40;47.60;;;;;;5061916;28;19927;-80
2022/04/26 08:00:18;;;;;;;;;;;20.30;47.60;;;;;;5062002;28;19924;-75
2022/04/26 08:02:43;;;;;;;;;;;20.30;47.50;;;;;;5062374;28;20081;-78
2022/04/26 08:05:09;;;;;;;;;;;20.40;47.50;;;;;;5063594;28;19990;-75
2022/04/26 08:07:39;;;;;;;;;;;20.40;47.10;;;;;;5061668;28;20435;-72
2022/04/26 08:10:12;;;;;;;;;;;20.40;47.00;;;;;;5054121;28;19924;-72
2022/04/26 08:12:41;;;;;;;;;;;20.40;47.10;;;;;;5047747;28;20011;-73
2022/04/26 08:15:10;;;;;;;;;;;20.40;47.20;;;;;;5039645;28;20364;-78
2022/04/26 08:17:35;;;;;;;;;;;20.40;46.90;;;;;;5023073;28;19924;-77
2022/04/26 08:20:01;;;;;;;;;;;20.50;46.90;;;;;;5026703;28;20000;-76
2022/04/26 08:22:27;;;;;;;;;;;20.50;47.10;;;;;;5029656;28;19929;-77
2022/04/26 08:27:36;;;;;;;;;;;20.50;47.10;;;;;;5031080;28;19921;-76
2022/04/26 08:30:03;;;;;;;;;;;20.60;47.30;;;;;;5016871;28;20276;-78
2022/04/26 08:32:42;;;;;;;;;;;20.60;47.30;;;;;;5025170;28;19936;-75
2022/04/26 08:35:10;;;;;;;;;;;20.60;47.20;;;;;;5035013;28;19952;-75
2022/04/26 08:37:36;;;;;;;;;;;20.80;52.10;;;;;;4999548;28;19926;-76
2022/04/26 08:40:04;;;;;;;;;;;20.70;51.20;;;;;;5025282;28;19921;-77
2022/04/26 08:42:37;;;;;;;;;;;20.90;53.50;;;;;;5028350;28;20745;-76
2022/04/26 08:45:04;;;;;;;;;;;20.80;53.60;;;;;;5034367;28;20395;-78
2022/04/26 08:52:58;;;;;;;;;;;20.70;46.80;;;;;;5029831;28;19936;-76
2022/04/26 08:55:24;;;;;;;;;;;20.70;47.00;;;;;;5023764;28;19935;-76
2022/04/26 08:57:50;;;;;;;;;;;20.80;54.10;;;;;;5027524;28;20289;-76
2022/04/26 09:00:16;;;;;;;;;;;20.80;74.70;;;;;;5008092;28;19925;-75
2022/04/26 09:02:41;;;;;;;;;;;21.00;59.70;;;;;;5028566;28;20403;-76
2022/04/26 09:05:11;;;;;;;;;;;20.90;47.30;;;;;;5029311;28;19935;-74
2022/04/26 09:07:37;;;;;;;;;;;21.00;57.20;;;;;;5027479;28;20019;-77
2022/04/26 09:10:09;;;;;;;;;;;20.80;46.90;;;;;;5021654;28;20423;-75
2022/04/26 09:12:53;;;;;;;;;;;20.90;47.10;;;;;;5027187;28;19924;-75
2022/04/26 09:15:19;;;;;;;;;;;20.90;47.00;;;;;;5025822;28;20388;-76
2022/04/26 09:17:44;;;;;;;;;;;20.90;46.90;;;;;;5025408;28;19921;-74
2022/04/26 09:20:10;;;;;;;;;;;20.90;46.90;;;;;;5010430;28;20394;-74
2022/04/26 09:22:38;;;;;;;;;;;20.90;46.80;;;;;;5032320;28;19950;-75
2022/04/26 09:25:07;;;;;;;;;;;21.00;46.80;;;;;;5031308;28;19925;-76
2022/04/26 09:27:37;;;;;;;;;;;21.00;46.70;;;;;;5027990;28;19967;-77
2022/04/26 09:30:10;;;;;;;;;;;21.00;46.70;;;;;;5025963;28;19925;-74
2022/04/26 09:32:49;;;;;;;;;;;21.00;46.60;;;;;;5027657;28;20372;-74
2022/04/26 09:35:21;;;;;;;;;;;21.00;46.60;;;;;;5025845;28;19925;-74
2022/04/26 09:37:47;;;;;;;;;;;21.00;46.70;;;;;;5025705;28;19927;-74
2022/04/26 09:40:12;;;;;;;;;;;21.00;46.80;;;;;;5023735;28;19929;-75
2022/04/26 09:42:41;;;;;;;;;;;21.00;46.70;;;;;;5028512;28;19979;-75
2022/04/26 09:45:07;;;;;;;;;;;21.00;46.60;;;;;;5031760;28;19924;-75
2022/04/26 09:47:36;;;;;;;;;;;21.00;46.60;;;;;;5025890;28;19924;-77
2022/04/26 09:50:11;;;;;;;;;;;21.10;46.60;;;;;;5027901;28;19986;-76
2022/04/26 09:52:37;;;;;;;;;;;21.00;47.30;;;;;;5031542;28;20003;-77
2022/04/26 09:55:03;;;;;;;;;;;21.00;46.50;;;;;;5027957;28;20020;-76
2022/04/26 09:57:31;;;;;;;;;;;21.10;46.70;;;;;;5023087;28;20631;-77
2022/04/26 09:59:59;;;;;;;;;;;21.00;46.70;;;;;;5027504;28;20447;-76
2022/04/26 10:02:27;;;;;;;;;;;21.10;46.70;;;;;;5037889;28;19948;-76
2022/04/26 10:04:54;;;;;;;;;;;21.10;46.70;;;;;;5037582;28;19968;-76
2022/04/26 10:07:23;;;;;;;;;;;21.10;47.00;;;;;;5024623;28;19924;-76
2022/04/26 10:09:49;;;;;;;;;;;21.20;47.80;;;;;;5028751;28;19936;-78
2022/04/26 10:12:15;;;;;;;;;;;21.30;47.60;;;;;;5027948;28;19924;-76
2022/04/26 10:14:42;;;;;;;;;;;21.10;46.90;;;;;;5051370;28;20288;-77
2022/04/26 10:17:08;;;;;;;;;;;21.10;46.90;;;;;;5044349;28;19921;-75
2022/04/26 10:19:35;;;;;;;;;;;21.10;46.90;;;;;;5046248;28;19931;-76
2022/04/26 10:22:01;;;;;;;;;;;21.10;46.90;;;;;;5051122;28;19928;-79
2022/04/26 10:24:26;;;;;;;;;;;21.20;47.00;;;;;;5049910;28;20006;-75
2022/04/26 10:26:52;;;;;;;;;;;21.20;47.00;;;;;;5050139;28;19924;-76
2022/04/26 10:29:19;;;;;;;;;;;21.20;47.00;;;;;;5050507;28;20425;-74
2022/04/26 10:32:00;;;;;;;;;;;21.20;46.80;;;;;;5061355;28;20011;-79
2022/04/26 10:34:29;;;;;;;;;;;21.30;46.70;;;;;;5051524;28;19928;-78
2022/04/26 10:36:55;;;;;;;;;;;21.30;46.70;;;;;;5037575;28;19935;-82
2022/04/26 10:39:24;;;;;;;;;;;21.30;46.70;;;;;;5040855;28;19924;-80
2022/04/26 10:41:50;;;;;;;;;;;21.30;46.60;;;;;;5043734;28;20427;-80
2022/04/26 10:44:16;;;;;;;;;;;21.30;46.50;;;;;;5042776;28;20039;-79
2022/04/26 10:47:07;;;;;;;;;;;21.40;46.50;;;;;;5044871;28;20062;-77
2022/04/26 10:49:38;;;;;;;;;;;21.40;46.50;;;;;;5056828;28;20050;-76
2022/04/26 10:52:10;;;;;;;;;;;21.40;46.40;;;;;;5052021;28;19921;-76
2022/04/26 10:54:58;;;;;;;;;;;21.40;46.30;;;;;;5058817;28;19924;-77
2022/04/26 10:57:28;;;;;;;;;;;21.40;46.40;;;;;;5039346;28;20053;-77
2022/04/26 11:00:14;;;;;;;;;;;21.50;46.40;;;;;;5053088;28;20438;-76
2022/04/26 11:02:41;;;;;;;;;;;21.40;46.20;;;;;;5047002;28;19956;-77
2022/04/26 11:05:08;;;;;;;;;;;21.40;46.20;;;;;;5047439;28;20007;-76
2022/04/26 11:07:34;;;;;;;;;;;21.40;46.30;;;;;;5048824;28;19952;-77
2022/04/26 11:10:00;;;;;;;;;;;21.40;46.30;;;;;;5053060;28;19959;-76
2022/04/26 11:12:25;;;;;;;;;;;21.30;46.20;;;;;;5047057;28;19982;-77
2022/04/26 11:14:52;;;;;;;;;;;21.30;47.00;;;;;;5059923;28;19924;-76
2022/04/26 11:17:18;;;;;;;;;;;21.30;46.30;;;;;;5056869;28;19920;-77
2022/04/26 11:19:47;;;;;;;;;;;21.30;46.20;;;;;;5055436;28;20366;-78
2022/04/26 11:22:13;;;;;;;;;;;21.30;46.10;;;;;;5054078;28;19920;-76
2022/04/26 11:30:08;;;;;;;;;;;21.30;45.50;;;;;;5050613;28;19921;-73
2022/04/26 11:32:42;;;;;;;;;;;21.20;45.20;;;;;;5033106;28;19931;-74
2022/04/26 11:35:13;;;;;;;;;;;21.20;45.10;;;;;;5037394;28;19920;-75
2022/04/26 11:37:45;;;;;;;;;;;21.20;45.00;;;;;;5054967;28;19920;-75
2022/04/26 11:40:11;;;;;;;;;;;21.20;45.00;;;;;;5036223;28;19928;-78
2022/04/26 11:42:37;;;;;;;;;;;21.20;44.80;;;;;;5062010;28;19986;-77
2022/04/26 11:45:06;;;;;;;;;;;21.20;44.80;;;;;;5063988;28;19924;-77
2022/04/26 11:47:50;;;;;;;;;;;21.20;44.80;;;;;;5077499;28;19975;-78
2022/04/26 11:50:26;;;;;;;;;;;21.10;44.60;;;;;;5058310;28;19977;-78
2022/04/26 11:52:53;;;;;;;;;;;21.10;44.60;;;;;;5062640;28;19929;-79
2022/04/26 11:55:20;;;;;;;;;;;21.10;44.50;;;;;;5061006;28;20367;-76
2022/04/26 11:57:49;;;;;;;;;;;21.10;44.30;;;;;;5056795;28;20027;-78
2022/04/26 12:00:19;;;;;;;;;;;21.10;44.30;;;;;;5060173;28;19924;-78
2022/04/26 12:02:45;;;;;;;;;;;21.10;44.20;;;;;;5050084;28;19925;-77
2022/04/26 12:05:11;;;;;;;;;;;21.20;44.20;;;;;;5052616;28;20304;-78
2022/04/26 12:07:37;;;;;;;;;;;21.10;44.00;;;;;;5035762;28;19921;-79
2022/04/26 12:10:03;;;;;;;;;;;21.10;43.80;;;;;;5059174;28;19960;-77
2022/04/26 12:12:29;;;;;;;;;;;21.20;43.80;;;;;;5043094;28;20427;-79
2022/04/26 12:14:55;;;;;;;;;;;21.20;43.70;;;;;;5075412;28;19931;-78
2022/04/26 12:17:29;;;;;;;;;;;21.20;43.60;;;;;;5042864;28;19924;-78
2022/04/26 12:19:55;;;;;;;;;;;21.20;43.60;;;;;;5049759;28;19927;-76
2022/04/26 12:22:25;;;;;;;;;;;21.20;43.50;;;;;;5035170;28;19921;-79
2022/04/26 12:24:51;;;;;;;;;;;21.20;43.40;;;;;;5036916;28;19946;-79
2022/04/26 12:27:19;;;;;;;;;;;21.20;43.40;;;;;;5061393;28;20375;-76
2022/04/26 12:29:46;;;;;;;;;;;21.30;43.30;;;;;;5061635;28;19924;-78
2022/04/26 12:32:11;;;;;;;;;;;21.30;43.20;;;;;;5061228;28;19920;-78
2022/04/26 12:34:46;;;;;;;;;;;21.20;43.10;;;;;;5023524;28;20572;-75
2022/04/26 12:37:22;;;;;;;;;;;21.20;43.00;;;;;;5061478;28;19924;-77
2022/04/26 12:39:49;;;;;;;;;;;21.30;43.10;;;;;;5060697;28;19932;-77
2022/04/26 12:42:16;;;;;;;;;;;21.30;43.10;;;;;;5060986;28;20014;-79
2022/04/26 12:44:51;;;;;;;;;;;21.30;43.00;;;;;;5051886;28;19932;-75
2022/04/26 12:52:50;;;;;;;;;;;21.30;42.70;;;;;;5060884;28;19928;-80
2022/04/26 12:55:26;;;;;;;;;;;21.40;42.80;;;;;;5063439;28;20657;-78
2022/04/26 12:57:53;;;;;;;;;;;21.30;42.60;;;;;;5057444;28;19931;-77
2022/04/26 13:00:22;;;;;;;;;;;21.40;42.60;;;;;;5058832;28;19916;-76
2022/04/26 13:02:49;;;;;;;;;;;21.40;42.50;;;;;;5060454;28;19924;-79
2022/04/26 13:05:15;;;;;;;;;;;21.30;42.50;;;;;;5034282;28;20010;-76
2022/04/26 13:07:41;;;;;;;;;;;21.40;42.60;;;;;;5057280;28;20051;-75
2022/04/26 13:10:06;;;;;;;;;;;21.30;42.40;;;;;;5036981;28;19920;-78
2022/04/26 13:12:32;;;;;;;;;;;21.40;42.50;;;;;;5066130;28;19928;-79
2022/04/26 13:15:01;;;;;;;;;;;21.30;42.30;;;;;;5055035;28;20019;-75
2022/04/26 13:17:27;;;;;;;;;;;21.30;42.20;;;;;;5057634;28;19928;-75
2022/04/26 13:19:52;;;;;;;;;;;21.30;42.20;;;;;;5035799;28;19932;-73
2022/04/26 13:22:18;;;;;;;;;;;21.40;42.20;;;;;;5048823;28;19928;-75
2022/04/26 13:24:44;;;;;;;;;;;21.30;42.10;;;;;;5059497;28;20626;-75
2022/04/26 13:27:10;;;;;;;;;;;21.30;42.10;;;;;;5060343;28;19924;-76
2022/04/26 13:29:35;;;;;;;;;;;21.30;42.10;;;;;;5061095;28;19927;-75
2022/04/26 13:32:02;;;;;;;;;;;21.30;42.10;;;;;;5057170;28;19924;-75
2022/04/26 13:34:28;;;;;;;;;;;21.30;42.20;;;;;;5058128;28;19929;-74
2022/04/26 13:36:54;;;;;;;;;;;21.30;42.10;;;;;;5051042;28;20019;-74
2022/04/26 13:39:21;;;;;;;;;;;21.30;42.00;;;;;;5057439;28;19920;-75
2022/04/26 13:41:50;;;;;;;;;;;21.30;41.90;;;;;;5056711;28;20467;-74
2022/04/26 13:44:19;;;;;;;;;;;21.30;42.00;;;;;;5055841;28;20296;-76
2022/04/26 13:46:45;;;;;;;;;;;21.30;41.90;;;;;;5059135;28;19983;-79
2022/04/26 13:49:11;;;;;;;;;;;21.20;41.70;;;;;;5031357;28;19920;-76
2022/04/26 13:51:36;;;;;;;;;;;21.30;41.60;;;;;;5040784;28;19924;-78
2022/04/26 13:54:02;;;;;;;;;;;21.20;41.50;;;;;;5061371;28;19920;-78
2022/04/26 13:56:28;;;;;;;;;;;21.20;41.40;;;;;;5060473;28;19928;-79
2022/04/26 13:58:53;;;;;;;;;;;21.20;41.40;;;;;;5044365;28;19932;-79
2022/04/26 14:01:19;;;;;;;;;;;21.20;41.40;;;;;;5037100;28;19930;-78
2022/04/26 14:03:45;;;;;;;;;;;21.10;41.50;;;;;;5055743;28;19924;-77
2022/04/26 14:06:14;;;;;;;;;;;21.10;41.60;;;;;;5038931;28;19924;-77
2022/04/26 14:08:40;;;;;;;;;;;21.10;41.50;;;;;;5048123;28;20027;-78
2022/04/26 14:11:06;;;;;;;;;;;21.20;41.60;;;;;;5032298;28;19921;-77
2022/04/26 14:21:46;;;;;;;;;;;21.20;41.60;;;;;;5041205;28;19951;-75
2022/04/26 14:21:48;;;;;;;;;;;21.10;41.60;;;;;;5048994;28;19955;-76
2022/04/26 14:24:14;;;;;;;;;;;21.00;41.60;;;;;;5051144;28;19966;-77
2022/04/26 14:26:42;;;;;;;;;;;21.00;41.60;;;;;;5049903;28;19939;-73
2022/04/26 14:29:09;;;;;;;;;;;21.00;41.80;;;;;;5054373;28;19973;-75
2022/04/26 14:31:36;;;;;;;;;;;21.00;41.90;;;;;;5058698;28;20312;-74
2022/04/26 14:34:02;;;;;;;;;;;21.00;42.10;;;;;;5059437;28;19928;-76
2022/04/26 14:36:27;;;;;;;;;;;21.00;42.20;;;;;;5057010;28;19928;-73
2022/04/26 14:38:53;;;;;;;;;;;21.00;42.20;;;;;;5037262;28;20018;-76
2022/04/26 14:41:19;;;;;;;;;;;21.00;42.30;;;;;;5047072;28;20027;-76
2022/04/26 14:43:44;;;;;;;;;;;20.90;42.30;;;;;;5045088;28;19931;-74
2022/04/26 14:46:10;;;;;;;;;;;21.00;42.40;;;;;;5041868;28;19924;-74
2022/04/26 14:48:36;;;;;;;;;;;20.90;42.40;;;;;;5061624;28;20364;-73
2022/04/26 14:51:02;;;;;;;;;;;20.90;42.30;;;;;;5052506;28;19964;-73
2022/04/26 14:53:27;;;;;;;;;;;20.90;42.30;;;;;;5061859;28;19936;-72
2022/04/26 14:55:59;;;;;;;;;;;21.00;42.50;;;;;;5052450;28;19999;-74
2022/04/26 14:58:25;;;;;;;;;;;20.90;42.40;;;;;;5056195;28;20398;-73
2022/04/26 15:00:51;;;;;;;;;;;20.90;42.50;;;;;;5051232;28;19932;-75
2022/04/26 15:03:18;;;;;;;;;;;21.00;42.60;;;;;;5038663;28;19927;-74
2022/04/26 15:05:43;;;;;;;;;;;20.90;42.30;;;;;;5064689;28;19917;-75
2022/04/26 15:10:53;;;;;;;;;;;20.90;42.10;;;;;;5059726;28;19929;-76
2022/04/26 15:18:47;;;;;;;;;;;20.90;42.00;;;;;;5056982;28;19912;-75
2022/04/26 15:21:13;;;;;;;;;;;20.90;42.00;;;;;;5038263;28;19924;-74
2022/04/26 15:23:38;;;;;;;;;;;20.90;41.90;;;;;;5061168;28;19932;-74
2022/04/26 15:26:06;;;;;;;;;;;20.90;42.00;;;;;;5055306;28;20316;-73
2022/04/26 15:28:34;;;;;;;;;;;20.90;42.00;;;;;;5059791;28;19935;-72
2022/04/26 15:31:01;;;;;;;;;;;20.80;42.20;;;;;;5062027;28;20245;-71
2022/04/26 15:33:26;;;;;;;;;;;20.80;42.30;;;;;;5040733;28;19920;-73
2022/04/26 15:35:52;;;;;;;;;;;20.80;42.40;;;;;;5043753;28;19920;-75
2022/04/26 15:38:17;;;;;;;;;;;20.80;42.30;;;;;;5052371;28;19927;-75
2022/04/26 15:40:46;;;;;;;;;;;20.80;42.20;;;;;;5034728;28;19924;-75
2022/04/26 15:43:12;;;;;;;;;;;20.80;42.10;;;;;;5062874;28;19956;-76
2022/04/26 15:45:37;;;;;;;;;;;20.70;42.00;;;;;;5052652;28;20009;-75
2022/04/26 15:48:06;;;;;;;;;;;20.80;41.90;;;;;;5043900;28;19920;-75
2022/04/26 15:50:32;;;;;;;;;;;20.80;41.90;;;;;;5050907;28;19929;-79
2022/04/26 15:52:57;;;;;;;;;;;20.80;41.90;;;;;;5063705;28;20670;-79
2022/04/26 15:55:23;;;;;;;;;;;20.80;41.90;;;;;;5047451;28;19924;-75
2022/04/26 15:57:52;;;;;;;;;;;20.70;42.00;;;;;;5060766;28;19921;-76
2022/04/26 16:00:20;;;;;;;;;;;20.70;42.10;;;;;;5055141;28;19924;-75
2022/04/26 16:02:46;;;;;;;;;;;20.70;42.20;;;;;;5060169;28;20007;-78
2022/04/26 16:05:12;;;;;;;;;;;20.80;42.50;;;;;;5051764;28;19924;-76
2022/04/26 16:07:38;;;;;;;;;;;20.80;42.90;;;;;;5053216;28;20432;-79
2022/04/26 16:21:03;;;;;;;;;;;20.80;44.80;;;;;;5064678;28;19924;-81
2022/04/26 16:23:29;;;;;;;;;;;20.90;45.30;;;;;;5059160;28;20923;-81
2022/04/26 16:26:01;;;;;;;;;;;20.90;47.50;;;;;;5058696;28;19924;-81
2022/04/26 16:28:28;;;;;;;;;;;20.90;47.50;;;;;;5075783;28;19928;-82
2022/04/26 16:30:54;;;;;;;;;;;21.00;47.60;;;;;;5058796;28;20415;-83
2022/04/26 16:33:19;;;;;;;;;;;21.00;47.60;;;;;;5058959;28;20022;-80
2022/04/26 16:35:45;;;;;;;;;;;21.00;48.20;;;;;;5059924;28;19927;-80
2022/04/26 16:38:11;;;;;;;;;;;21.00;48.00;;;;;;5041526;28;19928;-80
2022/04/26 16:40:37;;;;;;;;;;;21.00;48.30;;;;;;5042444;28;19927;-80
2022/04/26 16:43:03;;;;;;;;;;;21.00;48.10;;;;;;5043854;28;19924;-83
2022/04/26 16:45:28;;;;;;;;;;;21.00;47.80;;;;;;5040730;28;20021;-79
2022/04/26 16:47:54;;;;;;;;;;;21.00;47.80;;;;;;5059787;28;19928;-77
2022/04/26 16:50:20;;;;;;;;;;;21.10;47.90;;;;;;5051688;28;19928;-79
2022/04/26 16:52:46;;;;;;;;;;;21.10;47.80;;;;;;5056907;28;20284;-80
2022/04/26 16:55:12;;;;;;;;;;;21.10;47.60;;;;;;5056358;28;19928;-78
2022/04/26 16:57:37;;;;;;;;;;;21.10;47.60;;;;;;5058134;28;19934;-77
2022/04/26 17:00:03;;;;;;;;;;;21.10;47.50;;;;;;5053209;28;19935;-77
2022/04/26 17:02:30;;;;;;;;;;;21.10;47.60;;;;;;5054931;28;19951;-76
2022/04/26 17:04:56;;;;;;;;;;;21.10;47.60;;;;;;5041544;28;19924;-78
2022/04/26 17:07:21;;;;;;;;;;;21.10;47.50;;;;;;5050546;28;20029;-76
2022/04/26 17:09:47;;;;;;;;;;;21.10;47.50;;;;;;5055921;28;19974;-78
2022/04/26 17:12:14;;;;;;;;;;;21.10;47.40;;;;;;5070786;28;19963;-75
2022/04/26 17:14:41;;;;;;;;;;;21.10;47.40;;;;;;5073048;28;19928;-76
2022/04/26 17:17:08;;;;;;;;;;;21.10;47.40;;;;;;5052355;28;19924;-76
2022/04/26 17:19:33;;;;;;;;;;;21.10;47.40;;;;;;5052605;28;20042;-75
2022/04/26 17:22:01;;;;;;;;;;;21.10;47.50;;;;;;5054968;28;20027;-78
2022/04/26 17:27:11;;;;;;;;;;;21.20;47.50;;;;;;5048650;28;19920;-80
2022/04/26 17:29:37;;;;;;;;;;;21.20;47.10;;;;;;5050108;28;19946;-80
2022/04/26 17:32:03;;;;;;;;;;;21.20;47.00;;;;;;5040867;28;20718;-78
2022/04/26 17:34:28;;;;;;;;;;;21.20;47.10;;;;;;5068263;28;19931;-73
2022/04/26 17:36:54;;;;;;;;;;;21.10;46.60;;;;;;5048144;28;19920;-74
2022/04/26 17:39:20;;;;;;;;;;;21.10;45.20;;;;;;5049038;28;20047;-75
2022/04/26 17:41:47;;;;;;;;;;;21.10;45.80;;;;;;5048665;28;19924;-74
2022/04/26 17:44:13;;;;;;;;;;;21.00;45.50;;;;;;5046590;28;20433;-74
2022/04/26 17:46:40;;;;;;;;;;;21.00;45.00;;;;;;5052746;28;20308;-74
2022/04/26 17:49:06;;;;;;;;;;;21.00;45.10;;;;;;5032754;28;20434;-79
2022/04/26 17:51:31;;;;;;;;;;;20.90;45.20;;;;;;5057681;28;19920;-77
2022/04/26 17:56:42;;;;;;;;;;;20.90;45.40;;;;;;5055186;28;19978;-78
2022/04/26 17:59:07;;;;;;;;;;;20.80;45.10;;;;;;5035698;28;19923;-78
2022/04/26 18:01:36;;;;;;;;;;;20.80;45.00;;;;;;5058765;28;19920;-78
2022/04/26 18:04:05;;;;;;;;;;;20.80;45.00;;;;;;5050840;28;19924;-77
2022/04/26 18:06:31;;;;;;;;;;;20.90;45.20;;;;;;5055689;28;19958;-78
2022/04/26 18:08:56;;;;;;;;;;;20.80;45.20;;;;;;5052699;28;19924;-77
2022/04/26 18:11:22;;;;;;;;;;;20.80;45.20;;;;;;5057287;28;19928;-77
2022/04/26 18:13:52;;;;;;;;;;;20.80;45.30;;;;;;5051962;28;19939;-78
2022/04/26 18:16:21;;;;;;;;;;;20.80;45.30;;;;;;5035028;28;20332;-77
2022/04/26 18:18:47;;;;;;;;;;;20.70;45.30;;;;;;5036031;28;20052;-77
2022/04/26 18:21:12;;;;;;;;;;;20.70;45.40;;;;;;5051499;28;19924;-79
2022/04/26 18:23:38;;;;;;;;;;;20.70;45.50;;;;;;5075286;28;19928;-78
2022/04/26 18:26:13;;;;;;;;;;;20.70;45.50;;;;;;5034073;28;19920;-78
2022/04/26 18:28:39;;;;;;;;;;;20.70;45.50;;;;;;5057546;28;19931;-78
2022/04/26 18:31:06;;;;;;;;;;;20.70;45.50;;;;;;5056832;28;20377;-78
2022/04/26 18:33:31;;;;;;;;;;;20.70;45.60;;;;;;5037796;28;20406;-78
2022/04/26 18:35:57;;;;;;;;;;;20.60;45.60;;;;;;5075786;28;19920;-78
2022/04/26 18:38:22;;;;;;;;;;;20.60;45.60;;;;;;5069486;28;20451;-79
2022/04/26 18:40:48;;;;;;;;;;;20.60;45.70;;;;;;5074278;28;19934;-79
2022/04/26 18:43:14;;;;;;;;;;;20.60;45.70;;;;;;5068342;28;19957;-79
2022/04/26 18:45:40;;;;;;;;;;;20.60;45.70;;;;;;5055045;28;19947;-78
2022/04/26 18:48:06;;;;;;;;;;;20.60;45.80;;;;;;5067839;28;19991;-78